Amarillo, Texas
Current Conditions -  °F | °C
As of 11:53 PM on Saturday 25 Oct 2014 (Local Time) from KAMA Reporting Station
Clear Clear  
Wind Chill: 64°   Ceiling: Unl
Heat Index: 64°   Visibility: 10mi
Dew Point: 50°   Wind: 15mph
Humidity: 60%   Direction: 190°S
Pressure: 30.06"   Gusts: NA
Location:  35.21°N, 101.83°W
Report Text: KAMA 260453Z AUTO 19013KT 10SM CLR 18/10 A3006 RMK AO2 SLP133 T01780100
Loading
Personal Weather Stations






























Interactive Weather Map
Tropical Storm Tracking
New forecast layout! Learn more

10-Day Weather Forecast

Advertisements
Track Severe Weather on mobile